Independence of the Seas — C6WW4 — position and weather

sailwx.info

Track history (hours):
 
Tides and Currents Weather Stations Pressure Air Temp Water Temp Dewpoint Dewpoint Depression Visibility Wind Speed Wind Dir Waves Ship Positions

Independence of the Seas

Last reported at 2015-Aug-02 22:06 UTC. Time now 2015-Aug-04 21:54 UTC.
Position N 26°08' W 079°42'.

Length 339 m; draft 8.8 m.

Type: Passenger vessel. MMSI: 309374000.

Date/timePositionNaut miles runAvg speedWind from/ knotsBaromVisibWave heightAir tempDewpointWater temp
2015-Aug-02 22:06N 26°08' W 079°42'1120.5
2015-Aug-02 21:33N 26°07' W 079°54'1211.7
2015-Aug-02 20:33N 26°05' W 080°07'0 0.0
2015-Aug-02 19:27N 26°05' W 080°07'0 0.0
2015-Aug-02 18:30N 26°05' W 080°07'0 0.0
2015-Aug-02 17:27N 26°05' W 080°07'0 0.0
2015-Aug-02 16:33N 26°05' W 080°07'0 0.0
2015-Aug-02 15:33N 26°05' W 080°07'0 0.0
2015-Aug-02 14:33N 26°05' W 080°07'0 0.0
2015-Aug-02 13:33N 26°05' W 080°07'0 0.0
2015-Aug-02 12:33N 26°05' W 080°07'0 0.0
2015-Aug-02 11:33N 26°05' W 080°07'0 0.1
2015-Aug-02 10:33N 26°05' W 080°07'8 7.8
2015-Aug-02 09:33N 26°01' W 079°60'2019.7
2015-Aug-02 08:33N 25°42' W 079°58'49515.0
2015-Jul-31 23:33N 20°32' W 086°59'3 2.6
2015-Jul-31 22:31N 20°29' W 086°59'0 0.0
2015-Jul-31 21:31N 20°29' W 086°59'0 0.0
2015-Jul-31 20:31N 20°29' W 086°59'0 0.0
2015-Jul-31 19:31N 20°29' W 086°59'0 0.0
2015-Jul-31 18:31N 20°29' W 086°59'0 0.0
2015-Jul-31 17:31N 20°29' W 086°59'0 0.0
2015-Jul-31 16:31N 20°29' W 086°59'0 0.0
2015-Jul-31 15:28N 20°29' W 086°59'0 0.0
2015-Jul-31 14:31N 20°29' W 086°59'0 0.4
2015-Jul-31 13:33N 20°29' W 086°59'  
2015-Jul-26 22:34N 25°37' W 079°54'1514.6
2015-Jul-26 21:34N 25°51' W 079°58'1514.8
2015-Jul-26 20:33N 26°05' W 080°03'4 3.9
2015-Jul-26 19:33N 26°05' W 080°07'0 0.0
2015-Jul-26 18:33N 26°05' W 080°07'0 0.0
2015-Jul-26 17:33N 26°05' W 080°07'0 0.0
2015-Jul-26 16:24N 26°05' W 080°07'0 0.0
2015-Jul-26 15:27N 26°05' W 080°07'0 0.0
2015-Jul-26 14:27N 26°05' W 080°07'0 0.0
2015-Jul-26 13:27N 26°05' W 080°07'0 0.0
2015-Jul-26 12:30N 26°05' W 080°07'0 0.0
2015-Jul-26 11:30N 26°05' W 080°07'0 0.1
2015-Jul-26 10:33N 26°05' W 080°07'9 9.0
2015-Jul-26 09:33N 26°06' W 079°57'1716.9
2015-Jul-26 08:33N 26°09' W 079°39'  
2015-Jul-24 01:25N 18°13' W 063°35'1619.1
2015-Jul-24 00:33N 17°60' W 063°25'1818.6
2015-Jul-23 23:33N 17°45' W 063°14'  
Track history (hours):
 
Tides and Currents Weather Stations Pressure Air Temp Water Temp Dewpoint Dewpoint Depression Visibility Wind Speed Wind Dir Waves Ship Positions

Independence of the Seas

Last reported at 2015-Aug-02 22:06 UTC. Time now 2015-Aug-04 21:54 UTC.
Position N 26°08' W 079°42'.

Length 339 m; draft 8.8 m.

Type: Passenger vessel. MMSI: 309374000.

Date/timePositionNaut miles runAvg speedWind from/ knotsBaromVisibWave heightAir tempDewpointWater temp
2015-Aug-02 22:06N 26°08' W 079°42'1120.5
2015-Aug-02 21:33N 26°07' W 079°54'1211.7
2015-Aug-02 20:33N 26°05' W 080°07'0 0.0
2015-Aug-02 19:27N 26°05' W 080°07'0 0.0
2015-Aug-02 18:30N 26°05' W 080°07'0 0.0
2015-Aug-02 17:27N 26°05' W 080°07'0 0.0
2015-Aug-02 16:33N 26°05' W 080°07'0 0.0
2015-Aug-02 15:33N 26°05' W 080°07'0 0.0
2015-Aug-02 14:33N 26°05' W 080°07'0 0.0
2015-Aug-02 13:33N 26°05' W 080°07'0 0.0
2015-Aug-02 12:33N 26°05' W 080°07'0 0.0
2015-Aug-02 11:33N 26°05' W 080°07'0 0.1
2015-Aug-02 10:33N 26°05' W 080°07'8 7.8
2015-Aug-02 09:33N 26°01' W 079°60'2019.7
2015-Aug-02 08:33N 25°42' W 079°58'49515.0
2015-Jul-31 23:33N 20°32' W 086°59'3 2.6
2015-Jul-31 22:31N 20°29' W 086°59'0 0.0
2015-Jul-31 21:31N 20°29' W 086°59'0 0.0
2015-Jul-31 20:31N 20°29' W 086°59'0 0.0
2015-Jul-31 19:31N 20°29' W 086°59'0 0.0
2015-Jul-31 18:31N 20°29' W 086°59'0 0.0
2015-Jul-31 17:31N 20°29' W 086°59'0 0.0
2015-Jul-31 16:31N 20°29' W 086°59'0 0.0
2015-Jul-31 15:28N 20°29' W 086°59'0 0.0
2015-Jul-31 14:31N 20°29' W 086°59'0 0.4
2015-Jul-31 13:33N 20°29' W 086°59'  
2015-Jul-26 22:34N 25°37' W 079°54'1514.6
2015-Jul-26 21:34N 25°51' W 079°58'1514.8
2015-Jul-26 20:33N 26°05' W 080°03'4 3.9
2015-Jul-26 19:33N 26°05' W 080°07'0 0.0
2015-Jul-26 18:33N 26°05' W 080°07'0 0.0
2015-Jul-26 17:33N 26°05' W 080°07'0 0.0
2015-Jul-26 16:24N 26°05' W 080°07'0 0.0
2015-Jul-26 15:27N 26°05' W 080°07'0 0.0
2015-Jul-26 14:27N 26°05' W 080°07'0 0.0
2015-Jul-26 13:27N 26°05' W 080°07'0 0.0
2015-Jul-26 12:30N 26°05' W 080°07'0 0.0
2015-Jul-26 11:30N 26°05' W 080°07'0 0.1
2015-Jul-26 10:33N 26°05' W 080°07'9 9.0
2015-Jul-26 09:33N 26°06' W 079°57'1716.9
2015-Jul-26 08:33N 26°09' W 079°39'  
2015-Jul-24 01:25N 18°13' W 063°35'1619.1
2015-Jul-24 00:33N 17°60' W 063°25'1818.6
2015-Jul-23 23:33N 17°45' W 063°14'  

Dump ship's entire track history